Murfreesboro, TN (37132)

3:33 PM CDT on August 28, 2015 (GMT -0500)
Rushbrook | | Change Station
CLOSE
Current Station
Personal Weather Station
Location: Murfreesboro, TN
Elevation: 630 ft
Nearby Weather Stations

Elev 630 ft 35.80 °N, 86.34 °W | Updated 1 minute ago

Partly Cloudy
Partly Cloudy
87.8 °F
Feels Like 93 °F
N
1.7
Wind Variable Wind from ESE

Today
High -- | Low -- °F
--% Chance of Precip.
Yesterday
High -- | Low -- °F
Precip. -- in
6:14 AM 7:18 PM
Waxing Gibbous, 99% visible
Pressure 30.09 in
Visibility 10.0 miles
Clouds Scattered Clouds 6000 ft
Heat Index 93 °F
Dew Point 70 °F
Humidity 55%
Rainfall 0.00 in
Snow Depth Not available.
UV 6 out of 12
Pollen 9.50 out of 12
Air Quality Not available.
Flu Activity Not available.
METAR KMQY 281956Z 16009KT 10SM SCT060 34/17 A3007 RMK AO2 T03440166 SLP187
Pressure 30.09 in
Visibility 10.0 miles
Clouds Scattered Clouds 6000 ft
Heat Index 93 °F
Dew Point 70 °F
Humidity 55%
Rainfall 0.00 in
Snow Depth Not available.
UV 6 out of 12
Pollen 9.50 out of 12
Air Quality Not available.
Flu Activity Not available.
METAR KMQY 281956Z 16009KT 10SM SCT060 34/17 A3007 RMK AO2 T03440166 SLP187

10-Day Weather Forecast

×

Almanac

Astronomy

Aug. 28, 2015 Rise Set
Actual Time
Civil Twilight
Nautical Twilight
Astronomical Twilight
Moon
Length of Visible Light
Length of Day
Tomorrow will be .
, % of the Moon is Illuminated

Today's Extremes

State Highs State Lows

Community

WunderPhotos

Upload Photos

1,850,476 photos uploaded!

WunderBlogs® & News

Nearby

Air Quality

  Air Quality AQ Index Pollutant
Not available.

Snow Depth

Station Depth Elevation

Earthquake Activity

City Distance Mag. Time & Date
Minimum magnitude displayed is 2.5.

Coastal Water Temperatures

Place Temperature

Stations

Nearby Weather Stations

Station Location Temp. Windchill Dew Point Humidity Wind Precip. Elev Updated Type